createdAt,value
2023-11-26T00:00:36.533Z,2.03
2023-11-26T00:03:05.345Z,2.40
2023-11-26T00:05:31.817Z,2.10
2023-11-26T00:07:58.241Z,2.10
2023-11-26T00:10:24.696Z,1.83
2023-11-26T00:12:51.086Z,2.17
2023-11-26T00:15:17.468Z,2.17
2023-11-26T00:17:44.479Z,1.90
2023-11-26T00:20:11.236Z,1.90
2023-11-26T00:22:37.669Z,2.27
2023-11-26T00:25:04.345Z,1.90
2023-11-26T00:27:30.748Z,1.90
2023-11-26T00:29:57.264Z,2.10
2023-11-26T00:32:23.949Z,1.90
2023-11-26T00:34:50.507Z,1.80
2023-11-26T00:37:17.020Z,2.03
2023-11-26T00:39:44.021Z,2.10
2023-11-26T00:42:10.440Z,2.00
2023-11-26T00:44:36.809Z,1.83
2023-11-26T00:47:03.321Z,1.90
2023-11-26T00:49:29.749Z,2.20
2023-11-26T00:51:56.304Z,2.03
2023-11-26T00:54:22.648Z,1.93
2023-11-26T00:56:51.092Z,2.50
2023-11-26T00:59:17.493Z,2.33
2023-11-26T01:01:44.082Z,2.33
2023-11-26T01:04:10.537Z,2.50
2023-11-26T01:06:39.206Z,2.50
2023-11-26T01:09:05.670Z,2.57
2023-11-26T01:11:32.444Z,2.77
2023-11-26T01:13:59.016Z,2.70
2023-11-26T01:16:25.424Z,3.50
2023-11-26T01:18:52.104Z,2.63
2023-11-26T01:21:19.135Z,2.50
2023-11-26T01:23:46.783Z,2.70
2023-11-26T01:26:13.483Z,2.37
2023-11-26T01:28:39.903Z,2.73
2023-11-26T01:31:10.396Z,2.47
2023-11-26T01:33:36.917Z,2.27
2023-11-26T01:36:07.429Z,2.50
2023-11-26T01:38:33.870Z,2.00
2023-11-26T01:41:00.330Z,2.50
2023-11-26T01:43:27.676Z,2.40
2023-11-26T01:46:09.057Z,2.37
2023-11-26T01:48:36.884Z,2.50
2023-11-26T01:51:05.223Z,2.37
2023-11-26T01:53:32.894Z,2.43
2023-11-26T01:56:01.153Z,2.53
2023-11-26T01:58:31.478Z,2.20
2023-11-26T02:00:58.944Z,2.30
2023-11-26T02:03:25.520Z,2.30
2023-11-26T02:05:53.106Z,2.50
2023-11-26T02:08:21.631Z,1.90
2023-11-26T02:10:48.121Z,2.40
2023-11-26T02:13:15.093Z,2.40
2023-11-26T02:15:41.520Z,2.50
2023-11-26T02:18:08.309Z,2.80
2023-11-26T02:20:34.845Z,2.70
2023-11-26T02:23:01.253Z,2.53
2023-11-26T02:25:31.421Z,3.00
2023-11-26T02:28:00.266Z,2.40
2023-11-26T02:30:28.838Z,2.30
2023-11-26T02:32:55.312Z,2.73
2023-11-26T02:35:22.007Z,2.50
2023-11-26T02:37:48.693Z,2.70
2023-11-26T02:40:16.531Z,2.70
2023-11-26T02:42:44.633Z,3.00
2023-11-26T02:45:11.507Z,2.60
2023-11-26T02:47:38.331Z,3.07
2023-11-26T02:50:05.792Z,2.97
2023-11-26T02:52:32.233Z,3.00
2023-11-26T02:54:58.632Z,2.80
2023-11-26T02:57:25.508Z,3.10
2023-11-26T02:59:51.942Z,2.77
2023-11-26T03:02:19.283Z,3.00
2023-11-26T03:04:54.117Z,2.90
2023-11-26T03:07:22.997Z,3.30
2023-11-26T03:10:08.093Z,3.17
2023-11-26T03:12:53.133Z,2.97
2023-11-26T03:15:19.722Z,3.33
2023-11-26T03:17:46.215Z,3.10
2023-11-26T03:20:17.529Z,3.10
2023-11-26T03:22:43.975Z,2.93
2023-11-26T03:25:10.323Z,2.60
2023-11-26T03:27:36.830Z,2.83
2023-11-26T03:30:03.483Z,2.87
2023-11-26T03:32:29.978Z,2.83
2023-11-26T03:34:56.541Z,2.90
2023-11-26T03:37:23.453Z,2.50
2023-11-26T03:39:49.948Z,3.00
2023-11-26T03:42:23.170Z,2.60
2023-11-26T03:44:56.000Z,2.97
2023-11-26T03:47:22.459Z,2.60
2023-11-26T03:49:50.127Z,3.23
2023-11-26T03:52:16.518Z,2.60
2023-11-26T03:54:42.915Z,2.60
2023-11-26T03:57:11.447Z,2.50
2023-11-26T03:59:38.126Z,3.10
2023-11-26T04:02:04.800Z,2.67
2023-11-26T04:04:31.251Z,2.50
2023-11-26T04:06:59.255Z,2.70
2023-11-26T04:09:26.863Z,2.67
2023-11-26T04:11:57.747Z,2.93
2023-11-26T04:14:24.845Z,3.00
2023-11-26T04:16:51.237Z,2.97
2023-11-26T04:19:18.173Z,3.17
2023-11-26T04:21:46.094Z,2.80
2023-11-26T04:24:13.668Z,2.33
2023-11-26T04:26:46.308Z,2.70
2023-11-26T04:29:13.705Z,2.80
2023-11-26T04:31:40.116Z,2.90
2023-11-26T04:34:06.776Z,3.03
2023-11-26T04:36:33.143Z,2.70
2023-11-26T04:39:00.220Z,2.47
2023-11-26T04:41:27.580Z,2.90
2023-11-26T04:43:54.716Z,2.70
2023-11-26T04:46:21.315Z,2.53
2023-11-26T04:48:48.006Z,2.30
2023-11-26T04:51:14.443Z,2.77
2023-11-26T04:53:40.794Z,2.70
2023-11-26T04:56:07.659Z,2.50
2023-11-26T04:58:34.046Z,2.43
2023-11-26T05:01:00.442Z,2.90
2023-11-26T05:03:26.914Z,2.97
2023-11-26T05:05:53.592Z,3.20
2023-11-26T05:08:20.002Z,3.60
2023-11-26T05:10:46.454Z,2.80
2023-11-26T05:13:13.408Z,2.63
2023-11-26T05:15:39.748Z,2.87
2023-11-26T05:18:06.338Z,2.67
2023-11-26T05:20:32.816Z,2.73
2023-11-26T05:22:59.367Z,2.30
2023-11-26T05:25:25.757Z,2.70
2023-11-26T05:27:52.170Z,2.90
2023-11-26T05:30:19.361Z,2.67
2023-11-26T05:32:45.760Z,3.03
2023-11-26T05:35:15.300Z,2.87
2023-11-26T05:37:42.139Z,2.60
2023-11-26T05:40:13.121Z,2.73
2023-11-26T05:42:39.769Z,2.90
2023-11-26T05:45:06.434Z,3.13
2023-11-26T05:47:33.098Z,2.90
2023-11-26T05:50:00.353Z,2.70
2023-11-26T05:52:27.759Z,3.10
2023-11-26T05:54:54.104Z,2.83
2023-11-26T05:57:21.552Z,3.03
2023-11-26T05:59:48.000Z,2.60
2023-11-26T06:02:14.424Z,2.90
2023-11-26T06:04:40.822Z,2.80
2023-11-26T06:07:07.213Z,2.90
2023-11-26T06:09:33.654Z,2.83
2023-11-26T06:12:00.037Z,2.80
2023-11-26T06:14:26.504Z,2.67
2023-11-26T06:16:52.866Z,2.50
2023-11-26T06:19:19.235Z,2.60
2023-11-26T06:21:45.819Z,2.80
2023-11-26T06:24:12.867Z,3.00
2023-11-26T06:26:39.369Z,2.80
2023-11-26T06:29:06.708Z,2.70
2023-11-26T06:31:33.433Z,3.00
2023-11-26T06:33:59.798Z,3.40
2023-11-26T06:36:26.644Z,3.37
2023-11-26T06:38:54.057Z,3.30
2023-11-26T06:41:22.701Z,2.80
2023-11-26T06:43:49.091Z,2.80
2023-11-26T06:46:19.632Z,2.90
2023-11-26T06:48:46.057Z,2.80
2023-11-26T06:51:13.691Z,2.90
2023-11-26T06:53:40.388Z,3.37
2023-11-26T06:56:07.900Z,2.80
2023-11-26T06:58:38.113Z,3.50
2023-11-26T07:01:06.194Z,3.77
2023-11-26T07:03:36.198Z,3.40
2023-11-26T07:06:05.786Z,3.60
2023-11-26T07:08:35.032Z,3.87
2023-11-26T07:11:01.561Z,4.03
2023-11-26T07:13:27.888Z,4.47
2023-11-26T07:15:54.316Z,4.80
2023-11-26T07:18:20.705Z,5.53
2023-11-26T07:20:47.934Z,5.30
2023-11-26T07:23:14.818Z,5.70
2023-11-26T07:25:41.244Z,6.23
2023-11-26T07:28:12.390Z,5.03
2023-11-26T07:30:39.262Z,6.30
2023-11-26T07:33:05.994Z,6.80
2023-11-26T07:35:32.503Z,5.73
2023-11-26T07:37:58.876Z,6.47
2023-11-26T07:40:25.230Z,7.17
2023-11-26T07:42:51.683Z,7.23
2023-11-26T07:45:18.136Z,6.77
2023-11-26T07:47:44.523Z,7.20
2023-11-26T07:50:10.898Z,8.80
2023-11-26T07:52:37.961Z,8.63
2023-11-26T07:55:06.334Z,7.13
2023-11-26T07:57:33.477Z,5.70
2023-11-26T08:00:01.011Z,6.00
2023-11-26T08:02:30.677Z,6.27
2023-11-26T08:04:58.251Z,6.83
2023-11-26T08:07:25.506Z,7.93
2023-11-26T08:09:52.437Z,7.80
2023-11-26T08:12:24.332Z,6.77
2023-11-26T08:14:53.795Z,6.37
2023-11-26T08:17:20.721Z,6.43
2023-11-26T08:19:47.093Z,6.33
2023-11-26T08:22:13.678Z,7.07
2023-11-26T08:24:43.565Z,10.93
2023-11-26T08:27:11.288Z,10.03
2023-11-26T08:29:37.972Z,9.43
2023-11-26T08:32:08.654Z,10.07
2023-11-26T08:34:42.600Z,9.60
2023-11-26T08:37:16.015Z,9.63
2023-11-26T08:39:47.334Z,7.87
2023-11-26T08:42:15.571Z,7.93
2023-11-26T08:44:46.212Z,7.30
2023-11-26T08:47:13.004Z,6.67
2023-11-26T08:49:39.347Z,5.90
2023-11-26T08:52:05.992Z,5.43
2023-11-26T08:54:32.435Z,6.80
2023-11-26T08:56:58.795Z,8.23
2023-11-26T08:59:25.138Z,7.57
2023-11-26T09:01:51.632Z,7.40
2023-11-26T09:04:18.134Z,8.20
2023-11-26T09:06:44.734Z,9.37
2023-11-26T09:09:11.558Z,8.97
2023-11-26T09:11:37.940Z,9.07
2023-11-26T09:14:04.365Z,9.03
2023-11-26T09:16:37.450Z,8.27
2023-11-26T09:19:04.793Z,8.17
2023-11-26T09:21:31.749Z,6.97
2023-11-26T09:24:01.344Z,7.70
2023-11-26T09:26:28.571Z,13.53
2023-11-26T09:28:57.818Z,10.80
2023-11-26T09:31:24.890Z,10.87
2023-11-26T09:33:51.450Z,12.13
2023-11-26T09:36:17.922Z,12.53
2023-11-26T09:38:45.396Z,14.03
2023-11-26T09:41:18.955Z,9.00
2023-11-26T09:43:45.516Z,8.40
2023-11-26T09:46:12.084Z,9.00
2023-11-26T09:48:38.555Z,6.77
2023-11-26T09:51:06.047Z,5.83
2023-11-26T09:53:32.740Z,5.53
2023-11-26T09:55:59.122Z,6.57
2023-11-26T09:58:25.485Z,6.70
2023-11-26T10:00:51.987Z,7.10
2023-11-26T10:03:18.729Z,6.50
2023-11-26T10:05:45.617Z,5.47
2023-11-26T10:08:29.209Z,7.03
2023-11-26T10:10:56.658Z,6.43
2023-11-26T10:13:23.066Z,6.13
2023-11-26T10:15:49.743Z,4.83
2023-11-26T10:18:18.547Z,4.80
2023-11-26T10:20:51.109Z,4.33
2023-11-26T10:23:25.874Z,4.47
2023-11-26T10:25:52.236Z,4.77
2023-11-26T10:28:18.653Z,4.60
2023-11-26T10:30:45.250Z,5.10
2023-11-26T10:33:13.341Z,5.07
2023-11-26T10:35:48.491Z,4.50
2023-11-26T10:38:15.574Z,6.07
2023-11-26T10:40:43.661Z,7.23
2023-11-26T10:43:10.657Z,5.40
2023-11-26T10:45:38.721Z,5.47
2023-11-26T10:48:18.128Z,4.47
2023-11-26T10:50:52.144Z,4.33
2023-11-26T10:53:23.995Z,4.37
2023-11-26T10:55:53.193Z,5.40
2023-11-26T10:58:20.769Z,4.40
2023-11-26T11:00:50.303Z,4.10
2023-11-26T11:03:18.354Z,4.30
2023-11-26T11:05:48.255Z,4.20
2023-11-26T11:08:16.765Z,4.03
2023-11-26T11:11:10.924Z,3.93
2023-11-26T11:13:37.744Z,4.27
2023-11-26T11:16:04.753Z,3.83
2023-11-26T11:18:34.092Z,3.70
2023-11-26T11:21:11.664Z,3.40
2023-11-26T11:23:41.082Z,3.87
2023-11-26T11:26:09.275Z,3.73
2023-11-26T11:28:41.801Z,4.00
2023-11-26T11:31:10.436Z,4.57
2023-11-26T11:33:37.172Z,3.90
2023-11-26T11:36:06.389Z,4.07
2023-11-26T11:39:03.131Z,6.07
2023-11-26T11:41:31.172Z,4.40
2023-11-26T11:44:27.303Z,5.07
2023-11-26T11:46:53.723Z,5.87
2023-11-26T11:49:20.918Z,6.07
2023-11-26T11:51:47.481Z,5.93
2023-11-26T11:54:39.115Z,5.63
2023-11-26T11:57:16.307Z,5.63
2023-11-26T11:59:44.483Z,5.83
2023-11-26T12:02:11.942Z,6.93
2023-11-26T12:04:43.322Z,6.97
2023-11-26T12:07:11.976Z,7.33
2023-11-26T12:09:39.855Z,6.53
2023-11-26T12:12:07.698Z,6.53
2023-11-26T12:14:34.226Z,6.23
2023-11-26T12:17:07.544Z,5.90
2023-11-26T12:19:38.558Z,6.90
2023-11-26T12:22:05.446Z,6.60
2023-11-26T12:24:32.580Z,6.57
2023-11-26T12:26:59.172Z,5.40
2023-11-26T12:29:33.234Z,5.67
2023-11-26T12:32:09.978Z,4.80
2023-11-26T12:34:40.610Z,5.20
2023-11-26T12:37:08.764Z,5.47
2023-11-26T12:39:36.647Z,5.90
2023-11-26T12:42:03.337Z,5.97
2023-11-26T12:44:31.746Z,5.70
2023-11-26T12:47:10.637Z,4.33
2023-11-26T12:49:38.563Z,4.57
2023-11-26T12:52:05.706Z,5.57
2023-11-26T12:54:32.376Z,6.63
2023-11-26T12:56:58.781Z,7.03
2023-11-26T12:59:25.305Z,6.17
2023-11-26T13:01:52.278Z,5.70
2023-11-26T13:04:28.666Z,4.90
2023-11-26T13:06:56.611Z,4.87
2023-11-26T13:09:23.631Z,5.47
2023-11-26T13:11:50.226Z,4.73
2023-11-26T13:14:21.473Z,4.40
2023-11-26T13:16:50.117Z,4.70
2023-11-26T13:19:16.654Z,4.30
2023-11-26T13:21:48.408Z,4.33
2023-11-26T13:24:15.468Z,4.10
2023-11-26T13:26:42.074Z,3.80
2023-11-26T13:29:08.755Z,4.23
2023-11-26T13:31:35.176Z,3.67
2023-11-26T13:34:01.868Z,4.03
2023-11-26T13:36:28.306Z,3.63
2023-11-26T13:38:54.708Z,3.77
2023-11-26T13:41:21.842Z,3.20
2023-11-26T13:43:48.230Z,3.40
2023-11-26T13:46:14.723Z,3.23
2023-11-26T13:48:42.346Z,3.40
2023-11-26T13:51:12.060Z,3.60
2023-11-26T13:53:39.779Z,4.50
2023-11-26T13:56:06.601Z,4.07
2023-11-26T13:58:33.774Z,3.67
2023-11-26T14:01:00.404Z,3.67
2023-11-26T14:03:26.949Z,4.87
2023-11-26T14:05:54.416Z,6.10
2023-11-26T14:08:25.485Z,7.10
2023-11-26T14:10:51.938Z,6.37
2023-11-26T14:13:19.205Z,5.20
2023-11-26T14:15:46.012Z,5.77
2023-11-26T14:18:13.318Z,6.80
2023-11-26T14:20:40.015Z,6.83
2023-11-26T14:23:08.395Z,7.03
2023-11-26T14:25:35.137Z,5.60
2023-11-26T14:28:02.080Z,5.43
2023-11-26T14:30:28.552Z,5.57
2023-11-26T14:32:55.041Z,6.97
2023-11-26T14:35:21.579Z,8.67
2023-11-26T14:37:47.986Z,8.70
2023-11-26T14:40:14.676Z,7.70
2023-11-26T14:42:43.122Z,6.60
2023-11-26T14:45:10.903Z,6.50
2023-11-26T14:47:37.671Z,6.30
2023-11-26T14:50:05.272Z,6.47
2023-11-26T14:52:35.271Z,5.53
2023-11-26T14:55:02.718Z,5.97
2023-11-26T14:57:29.282Z,9.47
2023-11-26T14:59:56.130Z,14.13
2023-11-26T15:02:22.968Z,9.13
2023-11-26T15:04:50.596Z,6.70
2023-11-26T15:07:17.586Z,6.87
2023-11-26T15:09:46.392Z,6.53
2023-11-26T15:12:13.718Z,6.43
2023-11-26T15:14:40.965Z,6.87
2023-11-26T15:17:07.558Z,7.37
2023-11-26T15:19:34.332Z,6.43
2023-11-26T15:22:07.288Z,6.37
2023-11-26T15:24:36.896Z,5.73
2023-11-26T15:27:03.592Z,6.13
2023-11-26T15:29:30.117Z,6.00
2023-11-26T15:31:56.531Z,8.47
2023-11-26T15:34:24.055Z,8.70
2023-11-26T15:36:50.585Z,6.90
2023-11-26T15:39:21.414Z,8.77
2023-11-26T15:41:47.756Z,9.03
2023-11-26T15:44:14.851Z,8.07
2023-11-26T15:46:41.681Z,7.13
2023-11-26T15:49:08.455Z,6.77
2023-11-26T15:51:34.848Z,6.77
2023-11-26T15:54:03.546Z,5.97
2023-11-26T15:56:31.940Z,6.53
2023-11-26T15:58:58.560Z,6.20
2023-11-26T16:01:25.296Z,5.93
2023-11-26T16:03:51.986Z,5.83
2023-11-26T16:06:18.584Z,5.20
2023-11-26T16:08:47.265Z,5.80
2023-11-26T16:11:13.857Z,6.17
2023-11-26T16:13:40.628Z,6.00
2023-11-26T16:16:08.111Z,6.40
2023-11-26T16:18:37.447Z,5.60
2023-11-26T16:21:04.191Z,6.27
2023-11-26T16:23:30.674Z,7.17
2023-11-26T16:25:57.063Z,5.77
2023-11-26T16:28:23.543Z,5.70
2023-11-26T16:30:49.972Z,6.80
2023-11-26T16:33:41.336Z,6.23
2023-11-26T16:36:08.253Z,5.43
2023-11-26T16:38:34.583Z,5.83
2023-11-26T16:41:00.987Z,5.63
2023-11-26T16:43:27.398Z,4.93
2023-11-26T16:45:56.950Z,5.90
2023-11-26T16:48:23.286Z,5.30
2023-11-26T16:50:49.647Z,5.60
2023-11-26T16:53:16.055Z,6.07
2023-11-26T16:55:42.449Z,6.40
2023-11-26T16:58:08.924Z,7.07
2023-11-26T17:00:35.315Z,6.67
2023-11-26T17:03:01.717Z,6.73
2023-11-26T17:05:28.075Z,6.73
2023-11-26T17:07:54.442Z,6.17
2023-11-26T17:10:20.838Z,6.30
2023-11-26T17:12:50.287Z,24.43
2023-11-26T17:15:18.013Z,14.53
2023-11-26T17:17:44.416Z,15.47
2023-11-26T17:20:11.077Z,15.80
2023-11-26T17:22:37.425Z,25.73
2023-11-26T17:25:04.093Z,20.13
2023-11-26T17:27:30.490Z,22.97
2023-11-26T17:29:57.584Z,17.40
2023-11-26T17:32:24.365Z,8.73
2023-11-26T17:34:50.743Z,8.50
2023-11-26T17:37:18.290Z,6.97
2023-11-26T17:39:44.685Z,6.63
2023-11-26T17:42:11.045Z,7.10
2023-11-26T17:44:37.385Z,7.40
2023-11-26T17:47:08.364Z,17.30
2023-11-26T17:49:36.542Z,28.70
2023-11-26T17:52:03.038Z,33.90
2023-11-26T17:54:29.427Z,16.40
2023-11-26T17:56:57.324Z,11.63
2023-11-26T17:59:23.672Z,9.37
2023-11-26T18:01:51.550Z,8.80
2023-11-26T18:04:18.204Z,9.43
2023-11-26T18:06:44.995Z,8.60
2023-11-26T18:09:11.601Z,7.80
2023-11-26T18:11:37.952Z,9.23
2023-11-26T18:14:06.386Z,7.70
2023-11-26T18:16:32.979Z,7.20
2023-11-26T18:18:59.466Z,7.93
2023-11-26T18:21:27.197Z,7.20
2023-11-26T18:23:53.540Z,7.13
2023-11-26T18:26:19.882Z,7.57
2023-11-26T18:28:46.341Z,7.33
2023-11-26T18:31:12.817Z,7.23
2023-11-26T18:33:39.263Z,7.30
2023-11-26T18:36:06.046Z,7.73
2023-11-26T18:38:32.527Z,8.80
2023-11-26T18:40:58.922Z,9.20
2023-11-26T18:43:25.258Z,9.23
2023-11-26T18:45:54.747Z,8.13
2023-11-26T18:48:21.234Z,7.90
2023-11-26T18:50:47.930Z,8.30
2023-11-26T18:53:14.666Z,8.07
2023-11-26T18:55:41.066Z,11.37
2023-11-26T18:58:07.435Z,14.50
2023-11-26T19:00:33.815Z,13.77
2023-11-26T19:03:02.844Z,8.93
2023-11-26T19:05:29.238Z,8.43
2023-11-26T19:07:55.695Z,10.80
2023-11-26T19:10:23.490Z,9.00
2023-11-26T19:12:50.081Z,11.40
2023-11-26T19:15:16.956Z,11.63
2023-11-26T19:17:43.796Z,9.83
2023-11-26T19:20:10.947Z,8.90
2023-11-26T19:22:37.578Z,9.80
2023-11-26T19:25:04.592Z,11.10
2023-11-26T19:27:32.157Z,12.53
2023-11-26T19:29:58.692Z,14.13
2023-11-26T19:32:25.101Z,12.17
2023-11-26T19:34:51.760Z,12.00
2023-11-26T19:37:21.391Z,11.40
2023-11-26T19:39:47.880Z,10.93
2023-11-26T19:42:14.724Z,10.27
2023-11-26T19:44:41.222Z,9.87
2023-11-26T19:47:08.259Z,9.60
2023-11-26T19:49:34.812Z,16.43
2023-11-26T19:52:02.418Z,20.63
2023-11-26T19:54:29.219Z,16.33
2023-11-26T19:56:55.572Z,10.40
2023-11-26T19:59:21.944Z,8.57
2023-11-26T20:01:48.645Z,9.73
2023-11-26T20:04:15.189Z,9.60
2023-11-26T20:06:44.956Z,9.17
2023-11-26T20:09:11.318Z,9.03
2023-11-26T20:11:37.692Z,8.93
2023-11-26T20:14:04.102Z,8.93
2023-11-26T20:16:30.442Z,8.33
2023-11-26T20:18:56.814Z,8.50
2023-11-26T20:21:23.359Z,10.23
2023-11-26T20:23:51.249Z,17.60
2023-11-26T20:26:21.964Z,15.37
2023-11-26T20:28:48.718Z,13.60
2023-11-26T20:31:15.560Z,13.33
2023-11-26T20:33:44.981Z,12.77
2023-11-26T20:36:19.831Z,12.13
2023-11-26T20:38:49.751Z,10.77
2023-11-26T20:41:16.266Z,10.50
2023-11-26T20:43:42.775Z,9.70
2023-11-26T20:46:09.356Z,11.17
2023-11-26T20:48:35.917Z,12.20
2023-11-26T20:51:02.832Z,14.40
2023-11-26T20:53:29.162Z,14.40
2023-11-26T20:55:55.754Z,11.80
2023-11-26T20:58:22.128Z,10.93
2023-11-26T21:00:50.108Z,10.27
2023-11-26T21:03:16.617Z,11.50
2023-11-26T21:05:42.981Z,9.87
2023-11-26T21:08:09.511Z,9.60
2023-11-26T21:10:35.873Z,9.53
2023-11-26T21:13:02.974Z,9.63
2023-11-26T21:15:32.459Z,9.10
2023-11-26T21:17:59.359Z,8.47
2023-11-26T21:20:26.139Z,8.27
2023-11-26T21:22:53.185Z,7.90
2023-11-26T21:25:19.918Z,10.27
2023-11-26T21:27:46.839Z,12.60
2023-11-26T21:30:13.864Z,12.20
2023-11-26T21:32:40.749Z,14.33
2023-11-26T21:35:07.673Z,12.63
2023-11-26T21:37:34.120Z,12.37
2023-11-26T21:40:00.517Z,10.00
2023-11-26T21:42:26.907Z,8.93
2023-11-26T21:44:53.324Z,8.60
2023-11-26T21:47:19.675Z,9.33
2023-11-26T21:49:46.382Z,8.80
2023-11-26T21:52:15.201Z,8.90
2023-11-26T21:54:41.736Z,9.23
2023-11-26T21:57:08.151Z,9.17
2023-11-26T21:59:36.386Z,8.77
2023-11-26T22:02:03.250Z,8.73
2023-11-26T22:04:29.770Z,8.60
2023-11-26T22:06:56.240Z,8.53
2023-11-26T22:09:22.693Z,8.07
2023-11-26T22:11:49.042Z,9.03
2023-11-26T22:14:16.139Z,8.27
2023-11-26T22:16:43.888Z,8.90
2023-11-26T22:19:11.983Z,9.00
2023-11-26T22:21:38.376Z,9.30
2023-11-26T22:24:07.542Z,8.93
2023-11-26T22:26:39.295Z,8.73
2023-11-26T22:29:05.969Z,8.77
2023-11-26T22:31:33.509Z,8.90
2023-11-26T22:34:02.125Z,9.27
2023-11-26T22:36:30.749Z,9.90
2023-11-26T22:38:58.853Z,9.07
2023-11-26T22:41:27.822Z,9.80
2023-11-26T22:43:55.607Z,9.77
2023-11-26T22:46:27.236Z,10.10
2023-11-26T22:48:55.027Z,10.17
2023-11-26T22:51:21.971Z,11.07
2023-11-26T22:53:48.365Z,11.33
2023-11-26T22:56:15.705Z,11.07
2023-11-26T22:58:43.227Z,10.53
2023-11-26T23:01:09.788Z,12.23
2023-11-26T23:03:36.247Z,12.20
2023-11-26T23:06:10.292Z,12.40
2023-11-26T23:08:36.709Z,13.13
2023-11-26T23:11:03.745Z,13.30
2023-11-26T23:13:31.354Z,13.43
2023-11-26T23:15:58.100Z,14.13
2023-11-26T23:18:25.269Z,13.70
2023-11-26T23:20:51.636Z,13.97
2023-11-26T23:23:27.370Z,14.87
2023-11-26T23:26:03.230Z,15.20
2023-11-26T23:28:29.710Z,16.10
2023-11-26T23:30:56.111Z,15.57
2023-11-26T23:33:22.493Z,15.87
2023-11-26T23:35:48.991Z,15.87
2023-11-26T23:38:15.437Z,15.93
2023-11-26T23:40:47.399Z,15.73
2023-11-26T23:43:17.323Z,15.13
2023-11-26T23:45:43.873Z,14.80
2023-11-26T23:48:10.948Z,16.23
2023-11-26T23:50:37.326Z,15.40
2023-11-26T23:53:03.679Z,16.37
2023-11-26T23:55:30.453Z,15.87
2023-11-26T23:57:59.342Z,16.17
